createdAt,value
2023-06-18T00:00:58.972Z,85.57
2023-06-18T00:03:30.979Z,85.41
2023-06-18T00:06:02.781Z,85.22
2023-06-18T00:08:34.589Z,85.09
2023-06-18T00:11:14.147Z,85.03
2023-06-18T00:13:49.583Z,85.09
2023-06-18T00:16:21.372Z,84.95
2023-06-18T00:18:53.065Z,84.56
2023-06-18T00:21:24.643Z,83.99
2023-06-18T00:23:56.686Z,83.89
2023-06-18T00:26:29.912Z,84.14
2023-06-18T00:29:02.296Z,83.89
2023-06-18T00:31:34.226Z,84.26
2023-06-18T00:34:09.055Z,84.20
2023-06-18T00:36:43.126Z,84.31
2023-06-18T00:39:15.178Z,84.39
2023-06-18T00:41:47.697Z,84.34
2023-06-18T00:44:21.090Z,84.30
2023-06-18T00:46:55.165Z,84.56
2023-06-18T00:49:26.782Z,84.57
2023-06-18T00:51:59.147Z,84.95
2023-06-18T00:54:32.144Z,85.15
2023-06-18T00:57:06.093Z,85.56
2023-06-18T01:02:35.260Z,86.24
2023-06-18T01:05:10.219Z,86.63
2023-06-18T01:07:48.113Z,86.28
2023-06-18T01:10:19.232Z,85.57
2023-06-18T01:12:51.558Z,85.18
2023-06-18T01:15:23.462Z,84.87
2023-06-18T01:17:56.923Z,84.19
2023-06-18T01:20:30.279Z,84.06
2023-06-18T01:23:03.810Z,83.98
2023-06-18T01:25:37.173Z,83.87
2023-06-18T01:28:10.106Z,83.85
2023-06-18T01:30:42.213Z,83.93
2023-06-18T01:33:14.376Z,83.91
2023-06-18T01:35:46.797Z,83.61
2023-06-18T01:38:28.168Z,83.59
2023-06-18T01:41:14.723Z,83.85
2023-06-18T01:43:51.622Z,84.33
2023-06-18T01:46:26.323Z,84.10
2023-06-18T01:49:01.008Z,84.02
2023-06-18T01:51:33.696Z,84.30
2023-06-18T01:54:07.818Z,84.22
2023-06-18T01:56:39.795Z,83.89
2023-06-18T01:59:13.166Z,83.72
2023-06-18T02:01:44.823Z,83.79
2023-06-18T02:04:16.617Z,84.07
2023-06-18T02:06:56.777Z,83.35
2023-06-18T02:09:29.019Z,83.22
2023-06-18T02:12:01.526Z,83.42
2023-06-18T02:14:35.358Z,83.93
2023-06-18T02:17:08.046Z,83.11
2023-06-18T02:19:39.997Z,83.08
2023-06-18T02:22:11.587Z,83.34
2023-06-18T02:24:44.214Z,83.14
2023-06-18T02:27:17.095Z,82.85
2023-06-18T02:29:49.270Z,82.92
2023-06-18T02:32:21.804Z,83.21
2023-06-18T02:34:54.012Z,82.61
2023-06-18T02:37:25.706Z,82.39
2023-06-18T02:39:57.695Z,81.82
2023-06-18T02:42:32.072Z,81.54
2023-06-18T02:45:04.213Z,81.29
2023-06-18T02:47:36.018Z,81.30
2023-06-18T02:50:10.257Z,81.20
2023-06-18T02:52:43.872Z,80.96
2023-06-18T02:55:16.181Z,81.13
2023-06-18T02:57:48.233Z,81.01
2023-06-18T03:00:21.863Z,80.92
2023-06-18T03:02:53.970Z,80.77
2023-06-18T03:05:27.417Z,80.95
2023-06-18T03:08:00.228Z,80.81
2023-06-18T03:10:36.524Z,80.86
2023-06-18T03:13:16.771Z,80.96
2023-06-18T03:15:50.318Z,81.19
2023-06-18T03:18:25.025Z,80.95
2023-06-18T03:20:57.801Z,80.82
2023-06-18T03:23:29.520Z,81.10
2023-06-18T03:26:01.991Z,81.26
2023-06-18T03:28:34.548Z,81.12
2023-06-18T03:31:07.725Z,80.98
2023-06-18T03:33:39.531Z,80.45
2023-06-18T03:36:14.017Z,80.20
2023-06-18T03:38:49.869Z,79.93
2023-06-18T03:41:23.268Z,79.76
2023-06-18T03:43:54.971Z,79.52
2023-06-18T03:46:27.891Z,79.10
2023-06-18T03:48:59.725Z,78.24
2023-06-18T03:51:31.852Z,77.46
2023-06-18T03:54:05.633Z,77.49
2023-06-18T03:56:38.453Z,77.24
2023-06-18T03:59:12.117Z,76.60
2023-06-18T04:01:45.763Z,75.85
2023-06-18T04:04:19.214Z,75.18
2023-06-18T04:06:51.723Z,74.73
2023-06-18T04:09:23.692Z,73.81
2023-06-18T04:11:56.077Z,73.61
2023-06-18T04:14:28.517Z,73.49
2023-06-18T04:17:00.152Z,73.79
2023-06-18T04:19:34.015Z,72.93
2023-06-18T04:22:07.445Z,72.13
2023-06-18T04:24:40.724Z,72.13
2023-06-18T04:27:13.278Z,71.57
2023-06-18T04:29:46.110Z,71.48
2023-06-18T04:32:18.113Z,71.21
2023-06-18T04:34:49.927Z,71.58
2023-06-18T04:37:29.753Z,71.40
2023-06-18T04:40:00.722Z,71.53
2023-06-18T04:42:34.024Z,70.92
2023-06-18T04:45:09.616Z,71.26
2023-06-18T04:47:42.041Z,71.56
2023-06-18T04:50:13.772Z,71.71
2023-06-18T04:52:49.225Z,71.25
2023-06-18T04:55:22.786Z,71.07
2023-06-18T04:57:55.318Z,71.85
2023-06-18T05:00:28.918Z,71.42
2023-06-18T05:03:05.804Z,71.47
2023-06-18T05:05:38.154Z,71.97
2023-06-18T05:08:10.922Z,71.98
2023-06-18T05:10:43.543Z,72.09
2023-06-18T05:13:15.857Z,71.19
2023-06-18T05:15:48.405Z,71.35
2023-06-18T05:18:21.352Z,72.20
2023-06-18T05:20:54.962Z,71.30
2023-06-18T05:23:27.801Z,70.95
2023-06-18T05:26:00.619Z,71.13
2023-06-18T05:28:32.661Z,71.09
2023-06-18T05:31:04.286Z,71.07
2023-06-18T05:33:36.469Z,71.42
2023-06-18T05:36:09.273Z,71.65
2023-06-18T05:38:41.591Z,71.52
2023-06-18T05:41:13.646Z,71.41
2023-06-18T05:43:46.721Z,70.77
2023-06-18T05:46:18.855Z,71.27
2023-06-18T05:48:51.799Z,71.49
2023-06-18T05:51:24.728Z,71.13
2023-06-18T05:53:57.281Z,70.36
2023-06-18T05:56:30.084Z,70.14
2023-06-18T05:59:02.190Z,70.15
2023-06-18T06:01:35.996Z,70.39
2023-06-18T06:04:07.744Z,70.46
2023-06-18T06:06:40.118Z,69.80
2023-06-18T06:09:12.846Z,69.87
2023-06-18T06:11:44.498Z,70.30
2023-06-18T06:14:17.436Z,69.96
2023-06-18T06:16:52.921Z,70.51
2023-06-18T06:19:26.423Z,70.01
2023-06-18T06:21:58.334Z,69.17
2023-06-18T06:24:32.412Z,69.14
2023-06-18T06:27:04.524Z,69.75
2023-06-18T06:29:37.854Z,69.06
2023-06-18T06:32:10.171Z,68.23
2023-06-18T06:34:42.385Z,69.51
2023-06-18T06:37:14.317Z,69.63
2023-06-18T06:39:46.675Z,70.58
2023-06-18T06:42:20.063Z,70.71
2023-06-18T06:44:53.700Z,71.12
2023-06-18T06:47:33.273Z,71.42
2023-06-18T06:50:16.498Z,71.29
2023-06-18T06:52:58.714Z,70.19
2023-06-18T06:55:30.483Z,70.47
2023-06-18T06:58:02.858Z,71.42
2023-06-18T07:00:34.512Z,71.46
2023-06-18T07:03:06.609Z,69.47
2023-06-18T07:05:38.634Z,69.04
2023-06-18T07:08:10.183Z,68.48
2023-06-18T07:10:42.302Z,68.07
2023-06-18T07:13:15.073Z,68.22
2023-06-18T07:15:48.747Z,68.44
2023-06-18T07:18:20.316Z,67.23
2023-06-18T07:20:52.124Z,67.18
2023-06-18T07:23:26.236Z,67.46
2023-06-18T07:25:58.184Z,67.73
2023-06-18T07:28:29.926Z,66.94
2023-06-18T07:31:01.740Z,66.67
2023-06-18T07:33:34.087Z,67.21
2023-06-18T07:36:06.229Z,66.79
2023-06-18T07:38:38.614Z,66.10
2023-06-18T07:41:10.937Z,65.91
2023-06-18T07:43:42.581Z,66.25
2023-06-18T07:46:14.760Z,66.64
2023-06-18T07:48:46.466Z,66.04
2023-06-18T07:51:18.757Z,66.68
2023-06-18T07:53:51.507Z,66.75
2023-06-18T07:56:24.991Z,66.43
2023-06-18T07:58:56.973Z,66.15
2023-06-18T08:01:29.215Z,66.75
2023-06-18T08:04:01.084Z,66.00
2023-06-18T08:06:33.164Z,64.20
2023-06-18T08:09:05.800Z,63.73
2023-06-18T08:11:38.289Z,64.92
2023-06-18T08:14:10.292Z,64.47
2023-06-18T08:16:42.349Z,63.82
2023-06-18T08:19:14.907Z,62.78
2023-06-18T08:21:46.985Z,61.88
2023-06-18T08:24:19.146Z,62.58
2023-06-18T08:26:51.732Z,61.86
2023-06-18T08:29:23.866Z,62.02
2023-06-18T08:31:55.806Z,61.24
2023-06-18T08:34:27.817Z,61.06
2023-06-18T08:37:01.039Z,60.09
2023-06-18T08:39:32.844Z,60.09
2023-06-18T08:42:05.177Z,59.39
2023-06-18T08:44:37.233Z,58.74
2023-06-18T08:47:09.013Z,57.90
2023-06-18T08:49:45.575Z,57.50
2023-06-18T08:52:18.519Z,55.58
2023-06-18T08:54:55.919Z,55.12
2023-06-18T08:57:53.544Z,55.84
2023-06-18T09:00:25.470Z,56.46
2023-06-18T09:02:58.236Z,56.02
2023-06-18T09:05:30.311Z,54.62
2023-06-18T09:08:02.346Z,53.33
2023-06-18T09:10:34.371Z,51.16
2023-06-18T09:13:08.768Z,50.45
2023-06-18T09:15:40.532Z,50.53
2023-06-18T09:18:12.498Z,51.30
2023-06-18T09:20:44.422Z,52.71
2023-06-18T09:23:16.684Z,53.15
2023-06-18T09:25:55.223Z,53.15
2023-06-18T09:28:27.768Z,52.34
2023-06-18T09:31:04.427Z,52.57
2023-06-18T09:33:38.489Z,51.60
2023-06-18T09:36:11.425Z,53.04
2023-06-18T09:38:44.195Z,52.82
2023-06-18T09:41:18.946Z,51.68
2023-06-18T09:43:51.888Z,50.64
2023-06-18T09:46:25.289Z,50.58
2023-06-18T09:48:57.181Z,51.01
2023-06-18T09:51:30.432Z,51.32
2023-06-18T09:54:03.010Z,49.98
2023-06-18T09:56:35.650Z,48.83
2023-06-18T09:59:07.617Z,49.42
2023-06-18T10:01:49.469Z,49.40
2023-06-18T10:04:21.191Z,48.44
2023-06-18T10:07:01.250Z,50.61
2023-06-18T10:09:35.632Z,49.85
2023-06-18T10:12:08.418Z,49.17
2023-06-18T10:14:40.246Z,49.00
2023-06-18T10:17:21.344Z,49.32
2023-06-18T10:20:07.415Z,49.41
2023-06-18T10:22:47.558Z,51.13
2023-06-18T10:25:19.364Z,50.39
2023-06-18T10:27:51.590Z,49.06
2023-06-18T10:30:23.821Z,49.16
2023-06-18T10:32:55.802Z,48.78
2023-06-18T10:35:27.988Z,49.56
2023-06-18T10:37:59.649Z,49.15
2023-06-18T10:40:31.364Z,48.58
2023-06-18T10:43:08.290Z,50.04
2023-06-18T10:45:40.063Z,49.80
2023-06-18T10:48:17.365Z,48.70
2023-06-18T10:51:17.288Z,47.59
2023-06-18T10:53:49.035Z,46.37
2023-06-18T10:56:22.494Z,46.81
2023-06-18T10:58:54.285Z,46.22
2023-06-18T11:01:28.973Z,47.72
2023-06-18T11:04:05.750Z,48.81
2023-06-18T11:06:37.650Z,48.64
2023-06-18T11:09:15.868Z,48.11
2023-06-18T11:11:53.662Z,47.99
2023-06-18T11:14:26.227Z,46.35
2023-06-18T11:17:13.383Z,46.78
2023-06-18T11:19:45.203Z,46.94
2023-06-18T11:22:16.791Z,47.06
2023-06-18T11:24:48.728Z,46.55
2023-06-18T11:27:21.560Z,45.83
2023-06-18T11:30:01.108Z,46.45
2023-06-18T11:32:33.271Z,45.65
2023-06-18T11:35:07.639Z,46.62
2023-06-18T11:37:44.458Z,45.15
2023-06-18T11:40:16.456Z,43.35
2023-06-18T11:42:52.929Z,44.15
2023-06-18T11:45:25.501Z,44.70
2023-06-18T11:47:57.852Z,42.55
2023-06-18T11:50:30.041Z,42.32
2023-06-18T11:53:05.783Z,43.20
2023-06-18T11:55:38.057Z,43.43
2023-06-18T11:58:09.990Z,43.66
2023-06-18T12:00:41.644Z,42.62
2023-06-18T12:03:13.981Z,41.76
2023-06-18T12:05:46.018Z,41.80
2023-06-18T12:08:17.971Z,41.17
2023-06-18T12:10:50.832Z,41.37
2023-06-18T12:13:34.408Z,41.69
2023-06-18T12:16:15.217Z,42.04
2023-06-18T12:18:47.090Z,42.13
2023-06-18T12:21:18.850Z,42.17
2023-06-18T12:23:52.618Z,42.69
2023-06-18T12:26:26.163Z,42.50
2023-06-18T12:28:58.946Z,42.31
2023-06-18T12:31:31.076Z,42.26
2023-06-18T12:34:02.827Z,40.89
2023-06-18T12:36:34.895Z,40.66
2023-06-18T12:39:08.239Z,41.31
2023-06-18T12:41:40.647Z,41.30
2023-06-18T12:44:12.949Z,40.88
2023-06-18T12:46:46.485Z,40.20
2023-06-18T12:49:21.811Z,40.30
2023-06-18T12:51:54.863Z,40.17
2023-06-18T12:54:26.424Z,40.19
2023-06-18T12:56:59.976Z,39.89
2023-06-18T12:59:31.734Z,40.31
2023-06-18T13:02:03.750Z,39.99
2023-06-18T13:04:39.519Z,39.91
2023-06-18T13:07:18.242Z,39.26
2023-06-18T13:09:50.142Z,39.00
2023-06-18T13:12:23.434Z,38.88
2023-06-18T13:14:55.263Z,39.68
2023-06-18T13:17:27.467Z,40.17
2023-06-18T13:20:00.214Z,40.17
2023-06-18T13:22:33.076Z,39.31
2023-06-18T13:25:06.845Z,38.78
2023-06-18T13:27:39.934Z,38.30
2023-06-18T13:30:12.608Z,37.65
2023-06-18T13:32:46.057Z,38.46
2023-06-18T13:35:20.895Z,38.66
2023-06-18T13:37:53.061Z,39.25
2023-06-18T13:40:24.858Z,39.71
2023-06-18T13:42:56.948Z,40.03
2023-06-18T13:45:29.846Z,38.45
2023-06-18T13:48:04.731Z,38.54
2023-06-18T13:50:39.663Z,38.87
2023-06-18T13:53:11.891Z,38.50
2023-06-18T13:55:44.272Z,38.73
2023-06-18T13:58:17.606Z,38.86
2023-06-18T14:00:49.610Z,37.97
2023-06-18T14:03:21.607Z,38.30
2023-06-18T14:05:54.073Z,38.31
2023-06-18T14:08:26.133Z,38.77
2023-06-18T14:10:57.790Z,38.93
2023-06-18T14:13:30.585Z,39.36
2023-06-18T14:16:03.647Z,39.15
2023-06-18T14:18:35.760Z,38.65
2023-06-18T14:21:07.571Z,38.40
2023-06-18T14:23:41.667Z,38.49
2023-06-18T14:26:14.646Z,38.55
2023-06-18T14:28:46.589Z,38.18
2023-06-18T14:31:22.413Z,37.75
2023-06-18T14:34:08.054Z,38.33
2023-06-18T14:36:28.231Z,38.83
2023-06-18T14:38:59.832Z,38.91
2023-06-18T14:41:31.661Z,38.69
2023-06-18T14:44:03.529Z,38.65
2023-06-18T14:46:35.410Z,38.68
2023-06-18T14:49:07.503Z,37.91
2023-06-18T14:51:40.822Z,38.40
2023-06-18T14:54:17.687Z,37.94
2023-06-18T14:56:51.905Z,37.90
2023-06-18T14:59:23.772Z,37.59
2023-06-18T15:01:55.508Z,37.55
2023-06-18T15:04:27.182Z,36.71
2023-06-18T15:06:59.099Z,36.43
2023-06-18T15:09:30.867Z,36.01
2023-06-18T15:12:03.717Z,34.98
2023-06-18T15:14:35.883Z,33.87
2023-06-18T15:17:07.945Z,33.64
2023-06-18T15:19:39.890Z,33.82
2023-06-18T15:22:11.686Z,33.23
2023-06-18T15:24:43.327Z,33.32
2023-06-18T15:27:15.222Z,32.93
2023-06-18T15:29:47.149Z,32.66
2023-06-18T15:32:19.847Z,32.87
2023-06-18T15:34:52.111Z,33.10
2023-06-18T15:37:24.050Z,32.72
2023-06-18T15:39:55.896Z,31.95
2023-06-18T15:42:27.961Z,32.21
2023-06-18T15:45:00.306Z,32.17
2023-06-18T15:47:34.095Z,32.24
2023-06-18T15:50:07.307Z,32.20
2023-06-18T15:52:39.420Z,32.40
2023-06-18T15:55:11.783Z,32.49
2023-06-18T15:57:43.804Z,32.49
2023-06-18T16:00:15.898Z,32.30
2023-06-18T16:02:47.811Z,32.60
2023-06-18T16:05:19.810Z,32.63
2023-06-18T16:07:51.691Z,32.86
2023-06-18T16:10:23.381Z,33.35
2023-06-18T16:12:55.308Z,33.50
2023-06-18T16:15:27.220Z,33.44
2023-06-18T16:17:59.297Z,33.68
2023-06-18T16:20:31.785Z,34.24
2023-06-18T16:23:04.575Z,34.52
2023-06-18T16:25:38.275Z,34.82
2023-06-18T16:28:10.672Z,35.09
2023-06-18T16:30:42.483Z,35.53
2023-06-18T16:33:15.449Z,35.94
2023-06-18T16:35:47.306Z,36.14
2023-06-18T16:38:19.501Z,36.36
2023-06-18T16:40:51.236Z,36.28
2023-06-18T16:43:23.027Z,36.63
2023-06-18T16:45:54.703Z,36.96
2023-06-18T16:48:26.606Z,37.57
2023-06-18T16:50:58.521Z,38.50
2023-06-18T16:53:30.197Z,39.14
2023-06-18T16:56:01.945Z,39.71
2023-06-18T16:58:34.710Z,40.20
2023-06-18T17:01:06.483Z,40.38
2023-06-18T17:03:38.542Z,40.77
2023-06-18T17:06:10.802Z,41.25
2023-06-18T17:08:42.421Z,41.70
2023-06-18T17:11:15.286Z,42.80
2023-06-18T17:13:47.299Z,44.11
2023-06-18T17:16:19.020Z,44.33
2023-06-18T17:18:50.893Z,44.72
2023-06-18T17:21:22.815Z,45.61
2023-06-18T17:23:54.731Z,46.45
2023-06-18T17:26:28.009Z,46.87
2023-06-18T17:28:59.908Z,47.41
2023-06-18T17:31:31.838Z,47.78
2023-06-18T17:34:03.815Z,48.50
2023-06-18T17:36:36.008Z,48.87
2023-06-18T17:39:07.710Z,49.35
2023-06-18T17:41:41.418Z,49.66
2023-06-18T17:44:13.270Z,50.03
2023-06-18T17:46:47.265Z,50.30
2023-06-18T17:49:19.250Z,50.63
2023-06-18T17:51:51.755Z,51.02
2023-06-18T17:54:23.715Z,51.50
2023-06-18T17:56:55.828Z,51.32
2023-06-18T17:59:27.545Z,51.58
2023-06-18T18:01:59.427Z,51.36
2023-06-18T18:04:31.836Z,51.57
2023-06-18T18:07:04.420Z,51.69
2023-06-18T18:09:37.484Z,52.02
2023-06-18T18:12:10.145Z,52.21
2023-06-18T18:14:42.089Z,52.19
2023-06-18T18:17:13.870Z,52.07
2023-06-18T18:19:46.479Z,51.54
2023-06-18T18:22:19.483Z,51.32
2023-06-18T18:24:51.197Z,51.24
2023-06-18T18:27:23.087Z,51.16
2023-06-18T18:29:55.084Z,50.29
2023-06-18T18:32:26.958Z,50.42
2023-06-18T18:34:59.998Z,50.60
2023-06-18T18:37:32.278Z,50.61
2023-06-18T18:40:05.520Z,50.20
2023-06-18T18:42:37.470Z,50.46
2023-06-18T18:45:09.905Z,50.04
2023-06-18T18:47:42.183Z,50.21
2023-06-18T18:50:13.996Z,49.94
2023-06-18T18:52:46.565Z,50.22
2023-06-18T18:55:18.527Z,50.17
2023-06-18T18:57:50.179Z,49.87
2023-06-18T19:00:22.302Z,49.47
2023-06-18T19:02:54.113Z,49.03
2023-06-18T19:05:26.212Z,48.92
2023-06-18T19:08:00.756Z,48.40
2023-06-18T19:10:33.146Z,48.56
2023-06-18T19:13:08.732Z,48.65
2023-06-18T19:15:42.104Z,48.72
2023-06-18T19:18:26.957Z,49.06
2023-06-18T19:20:58.811Z,49.18
2023-06-18T19:23:30.543Z,48.99
2023-06-18T19:26:03.545Z,49.33
2023-06-18T19:28:35.357Z,49.31
2023-06-18T19:31:07.004Z,49.66
2023-06-18T19:33:39.417Z,49.39
2023-06-18T19:36:11.793Z,49.74
2023-06-18T19:38:43.973Z,49.84
2023-06-18T19:41:15.818Z,49.51
2023-06-18T19:43:59.087Z,49.36
2023-06-18T19:46:30.717Z,49.12
2023-06-18T19:49:02.793Z,49.25
2023-06-18T19:51:34.853Z,49.34
2023-06-18T19:54:06.976Z,49.53
2023-06-18T19:56:39.160Z,49.40
2023-06-18T19:59:10.824Z,49.33
2023-06-18T20:01:42.924Z,49.39
2023-06-18T20:04:14.771Z,49.67
2023-06-18T20:06:46.534Z,49.79
2023-06-18T20:09:18.167Z,50.00
2023-06-18T20:11:49.794Z,50.20
2023-06-18T20:14:21.427Z,50.51
2023-06-18T20:16:54.643Z,50.96
2023-06-18T20:19:26.904Z,51.29
2023-06-18T20:21:59.968Z,51.55
2023-06-18T20:24:32.664Z,51.88
2023-06-18T20:27:05.482Z,52.26
2023-06-18T20:29:37.848Z,52.73
2023-06-18T20:34:30.026Z,52.84
2023-06-18T20:37:22.139Z,52.68
2023-06-18T20:39:53.513Z,52.34
2023-06-18T20:42:26.288Z,52.29
2023-06-18T20:45:02.472Z,52.43
2023-06-18T20:47:35.021Z,52.56
2023-06-18T20:50:09.885Z,52.58
2023-06-18T20:52:43.610Z,52.71
2023-06-18T20:55:25.069Z,52.79
2023-06-18T20:57:58.552Z,52.89
2023-06-18T21:00:30.136Z,53.12
2023-06-18T21:03:02.070Z,53.33
2023-06-18T21:05:34.604Z,53.77
2023-06-18T21:08:06.661Z,54.06
2023-06-18T21:10:38.544Z,54.26
2023-06-18T22:06:54.309Z,54.70
2023-06-18T22:09:28.317Z,62.20
2023-06-18T22:12:02.987Z,62.01
2023-06-18T22:14:36.566Z,61.96
2023-06-18T22:17:08.989Z,61.93
2023-06-18T22:19:40.893Z,62.01
2023-06-18T22:22:14.755Z,61.93
2023-06-18T22:24:49.145Z,62.02
2023-06-18T22:27:21.405Z,61.70
2023-06-18T22:30:00.185Z,61.36
2023-06-18T22:32:32.450Z,61.28
2023-06-18T22:35:06.175Z,61.14
2023-06-18T22:37:38.652Z,61.62
2023-06-18T22:40:20.296Z,61.91
2023-06-18T22:42:55.873Z,61.84
2023-06-18T22:45:27.612Z,62.18
2023-06-18T22:48:00.148Z,62.13
2023-06-18T22:50:42.482Z,62.59
2023-06-18T22:53:21.033Z,62.95
2023-06-18T22:55:53.634Z,63.01
2023-06-18T22:58:25.413Z,63.23
2023-06-18T23:00:57.225Z,63.03
2023-06-18T23:03:32.168Z,63.01
2023-06-18T23:06:04.410Z,62.91
2023-06-18T23:08:36.249Z,62.85
2023-06-18T23:11:08.569Z,62.70
2023-06-18T23:13:40.926Z,62.61
2023-06-18T23:16:15.492Z,62.77
2023-06-18T23:18:47.984Z,62.84
2023-06-18T23:21:22.289Z,62.92
2023-06-18T23:23:55.066Z,63.15
2023-06-18T23:26:28.559Z,63.20
2023-06-18T23:29:02.805Z,63.25
2023-06-18T23:31:35.227Z,63.00
2023-06-18T23:34:09.336Z,62.90
2023-06-18T23:36:41.538Z,62.77
2023-06-18T23:39:16.230Z,62.62
2023-06-18T23:41:48.004Z,62.35
2023-06-18T23:44:20.167Z,62.29
2023-06-18T23:46:54.275Z,62.23
2023-06-18T23:49:25.952Z,62.11
2023-06-18T23:51:58.075Z,62.05
2023-06-18T23:54:30.287Z,61.99
2023-06-18T23:57:02.121Z,62.00
2023-06-18T23:59:34.072Z,62.08
